createdAt,value
2023-12-10T00:01:23.795Z,2.00
2023-12-10T00:03:50.358Z,1.91
2023-12-10T00:06:16.845Z,1.73
2023-12-10T00:08:43.228Z,1.88
2023-12-10T00:11:09.558Z,1.72
2023-12-10T00:13:35.917Z,1.79
2023-12-10T00:16:02.247Z,1.75
2023-12-10T00:18:28.734Z,1.85
2023-12-10T00:20:55.428Z,2.14
2023-12-10T00:23:21.736Z,1.99
2023-12-10T00:25:48.082Z,1.93
2023-12-10T00:28:14.436Z,1.87
2023-12-10T00:30:40.752Z,1.87
2023-12-10T00:33:07.207Z,1.93
2023-12-10T00:35:33.681Z,1.84
2023-12-10T00:37:59.995Z,1.92
2023-12-10T00:40:26.319Z,1.76
2023-12-10T00:42:52.700Z,1.79
2023-12-10T00:45:19.114Z,1.72
2023-12-10T00:47:45.537Z,1.47
2023-12-10T00:50:11.956Z,1.79
2023-12-10T00:52:38.287Z,1.89
2023-12-10T00:55:04.623Z,1.75
2023-12-10T00:57:31.129Z,2.04
2023-12-10T00:59:57.490Z,1.63
2023-12-10T01:02:23.919Z,1.76
2023-12-10T01:04:50.392Z,1.70
2023-12-10T01:07:16.743Z,1.74
2023-12-10T01:09:43.054Z,1.70
2023-12-10T01:12:09.527Z,1.69
2023-12-10T01:14:35.934Z,1.56
2023-12-10T01:17:02.240Z,1.68
2023-12-10T01:19:28.694Z,1.78
2023-12-10T01:21:55.083Z,1.73
2023-12-10T01:24:21.405Z,1.83
2023-12-10T01:26:47.749Z,1.84
2023-12-10T01:29:14.062Z,1.88
2023-12-10T01:31:40.364Z,1.84
2023-12-10T01:34:06.939Z,1.90
2023-12-10T01:36:33.346Z,1.81
2023-12-10T01:38:59.653Z,1.85
2023-12-10T01:41:26.106Z,1.98
2023-12-10T01:43:52.413Z,1.83
2023-12-10T01:46:18.741Z,1.85
2023-12-10T01:48:45.142Z,1.91
2023-12-10T01:51:11.528Z,1.99
2023-12-10T01:53:37.851Z,2.41
2023-12-10T01:56:04.279Z,2.04
2023-12-10T01:58:30.594Z,1.90
2023-12-10T02:00:56.991Z,2.03
2023-12-10T02:03:23.549Z,2.04
2023-12-10T02:05:49.980Z,1.86
2023-12-10T02:08:16.337Z,1.77
2023-12-10T02:10:42.754Z,1.76
2023-12-10T02:13:09.061Z,1.73
2023-12-10T02:15:35.415Z,1.59
2023-12-10T02:18:01.839Z,1.68
2023-12-10T02:20:28.163Z,1.77
2023-12-10T02:22:54.461Z,1.72
2023-12-10T02:25:20.848Z,1.50
2023-12-10T02:27:47.211Z,1.59
2023-12-10T02:30:13.538Z,1.60
2023-12-10T02:32:39.947Z,1.64
2023-12-10T02:35:06.265Z,1.81
2023-12-10T02:37:32.573Z,1.77
2023-12-10T02:39:58.897Z,1.75
2023-12-10T02:42:25.239Z,1.62
2023-12-10T02:44:51.600Z,1.54
2023-12-10T02:47:17.941Z,1.55
2023-12-10T02:49:44.323Z,1.59
2023-12-10T02:52:10.747Z,1.62
2023-12-10T02:54:37.190Z,1.66
2023-12-10T02:57:03.505Z,1.69
2023-12-10T02:59:29.824Z,1.58
2023-12-10T03:01:56.316Z,1.56
2023-12-10T03:04:22.640Z,1.68
2023-12-10T03:06:49.008Z,1.60
2023-12-10T03:09:15.396Z,1.45
2023-12-10T03:11:41.710Z,1.60
2023-12-10T03:14:09.366Z,1.60
2023-12-10T03:16:36.928Z,1.27
2023-12-10T03:19:03.371Z,1.42
2023-12-10T03:21:29.764Z,1.30
2023-12-10T03:23:56.234Z,1.63
2023-12-10T03:26:22.545Z,1.59
2023-12-10T03:28:48.946Z,1.65
2023-12-10T03:31:15.321Z,1.79
2023-12-10T03:33:41.766Z,1.78
2023-12-10T03:36:08.205Z,1.48
2023-12-10T03:38:34.575Z,1.61
2023-12-10T03:41:00.891Z,1.62
2023-12-10T03:43:27.200Z,1.75
2023-12-10T03:45:53.632Z,1.38
2023-12-10T03:48:20.120Z,1.48
2023-12-10T03:50:46.505Z,1.58
2023-12-10T03:53:12.922Z,1.55
2023-12-10T03:55:39.241Z,1.56
2023-12-10T03:58:05.565Z,1.54
2023-12-10T04:00:32.008Z,1.58
2023-12-10T04:02:58.386Z,1.49
2023-12-10T04:05:24.770Z,1.53
2023-12-10T04:07:51.191Z,1.57
2023-12-10T04:10:17.492Z,1.33
2023-12-10T04:12:43.889Z,1.60
2023-12-10T04:15:10.224Z,1.56
2023-12-10T04:17:36.658Z,1.62
2023-12-10T04:20:03.147Z,1.30
2023-12-10T04:22:29.855Z,1.54
2023-12-10T04:24:56.423Z,1.70
2023-12-10T04:27:22.815Z,1.51
2023-12-10T04:29:49.374Z,1.64
2023-12-10T04:32:15.680Z,1.57
2023-12-10T04:34:42.105Z,1.51
2023-12-10T04:37:08.617Z,1.59
2023-12-10T04:39:34.948Z,1.36
2023-12-10T04:42:01.313Z,1.39
2023-12-10T04:44:27.748Z,1.49
2023-12-10T04:46:54.060Z,1.43
2023-12-10T04:49:20.611Z,1.34
2023-12-10T04:51:47.227Z,1.31
2023-12-10T04:54:13.591Z,1.22
2023-12-10T04:56:39.943Z,1.28
2023-12-10T04:59:06.300Z,1.34
2023-12-10T05:01:32.656Z,1.41
2023-12-10T05:03:59.078Z,1.55
2023-12-10T05:06:25.697Z,1.69
2023-12-10T05:08:52.030Z,1.42
2023-12-10T05:11:18.343Z,1.43
2023-12-10T05:13:44.879Z,1.45
2023-12-10T05:16:11.186Z,1.41
2023-12-10T05:18:37.714Z,1.41
2023-12-10T05:21:04.122Z,1.64
2023-12-10T05:23:30.418Z,1.53
2023-12-10T05:25:56.745Z,1.38
2023-12-10T05:28:23.096Z,1.45
2023-12-10T05:30:49.468Z,1.60
2023-12-10T05:33:15.961Z,1.64
2023-12-10T05:35:42.465Z,1.63
2023-12-10T05:38:08.776Z,1.68
2023-12-10T05:40:35.085Z,1.52
2023-12-10T05:43:01.493Z,1.62
2023-12-10T05:45:27.831Z,1.66
2023-12-10T05:47:54.301Z,1.77
2023-12-10T05:50:21.181Z,1.68
2023-12-10T05:52:47.484Z,1.64
2023-12-10T05:55:13.791Z,1.69
2023-12-10T05:57:40.208Z,1.78
2023-12-10T06:00:06.544Z,1.71
2023-12-10T06:02:32.872Z,1.76
2023-12-10T06:04:59.224Z,1.76
2023-12-10T06:07:25.560Z,2.35
2023-12-10T06:09:51.967Z,2.34
2023-12-10T06:12:18.421Z,2.15
2023-12-10T06:14:44.763Z,2.03
2023-12-10T06:17:11.164Z,1.78
2023-12-10T06:19:37.770Z,1.83
2023-12-10T06:22:04.227Z,1.86
2023-12-10T06:24:30.664Z,1.95
2023-12-10T06:26:57.045Z,1.86
2023-12-10T06:29:23.358Z,1.84
2023-12-10T06:31:49.774Z,2.01
2023-12-10T06:34:16.288Z,1.69
2023-12-10T06:36:42.748Z,2.03
2023-12-10T06:39:09.102Z,1.85
2023-12-10T06:41:35.729Z,2.06
2023-12-10T06:44:02.092Z,1.79
2023-12-10T06:46:28.434Z,1.86
2023-12-10T06:48:54.865Z,2.44
2023-12-10T06:51:21.282Z,2.01
2023-12-10T06:53:47.615Z,2.06
2023-12-10T06:56:14.115Z,1.98
2023-12-10T06:58:40.433Z,2.04
2023-12-10T07:01:06.865Z,2.12
2023-12-10T07:03:33.681Z,1.89
2023-12-10T07:06:00.376Z,2.00
2023-12-10T07:08:26.932Z,1.88
2023-12-10T07:10:53.362Z,1.85
2023-12-10T07:13:19.674Z,2.00
2023-12-10T07:15:46.021Z,2.10
2023-12-10T07:18:12.486Z,1.82
2023-12-10T07:20:38.832Z,2.08
2023-12-10T07:23:05.141Z,2.05
2023-12-10T07:25:33.181Z,1.99
2023-12-10T07:27:59.586Z,2.02
2023-12-10T07:30:25.969Z,1.96
2023-12-10T07:32:52.384Z,1.79
2023-12-10T07:35:18.699Z,1.78
2023-12-10T07:37:45.070Z,2.00
2023-12-10T07:40:11.437Z,1.96
2023-12-10T07:42:37.796Z,2.07
2023-12-10T07:45:04.143Z,2.10
2023-12-10T07:47:30.517Z,1.88
2023-12-10T07:49:56.900Z,1.98
2023-12-10T07:52:23.426Z,1.92
2023-12-10T07:54:49.783Z,1.78
2023-12-10T07:57:16.143Z,1.95
2023-12-10T07:59:42.488Z,1.80
2023-12-10T08:02:08.826Z,1.90
2023-12-10T08:04:35.156Z,2.11
2023-12-10T08:07:01.502Z,2.11
2023-12-10T08:09:27.831Z,2.27
2023-12-10T08:11:54.148Z,2.94
2023-12-10T08:14:20.480Z,3.94
2023-12-10T08:16:46.926Z,5.14
2023-12-10T08:19:13.351Z,4.38
2023-12-10T08:21:39.791Z,4.70
2023-12-10T08:24:06.155Z,4.02
2023-12-10T08:26:32.464Z,2.60
2023-12-10T08:28:59.263Z,2.16
2023-12-10T08:31:25.585Z,2.06
2023-12-10T08:33:52.063Z,1.85
2023-12-10T08:36:18.517Z,2.10
2023-12-10T08:38:44.890Z,2.15
2023-12-10T08:41:11.259Z,2.41
2023-12-10T08:43:37.608Z,2.30
2023-12-10T08:46:03.985Z,1.90
2023-12-10T08:48:30.643Z,1.92
2023-12-10T08:50:57.039Z,2.14
2023-12-10T08:53:23.398Z,2.12
2023-12-10T08:55:49.822Z,2.02
2023-12-10T08:58:16.171Z,1.89
2023-12-10T09:00:42.615Z,2.15
2023-12-10T09:03:08.997Z,2.01
2023-12-10T09:05:35.416Z,1.85
2023-12-10T09:08:01.840Z,1.97
2023-12-10T09:10:28.190Z,1.98
2023-12-10T09:12:54.682Z,2.16
2023-12-10T09:15:21.090Z,2.11
2023-12-10T09:17:47.511Z,2.03
2023-12-10T09:20:14.000Z,2.05
2023-12-10T09:22:40.367Z,2.05
2023-12-10T09:25:06.681Z,2.04
2023-12-10T09:27:33.066Z,2.12
2023-12-10T09:29:59.462Z,2.28
2023-12-10T09:32:25.813Z,2.21
2023-12-10T09:34:52.278Z,2.19
2023-12-10T09:37:18.694Z,2.15
2023-12-10T09:39:45.057Z,2.59
2023-12-10T09:42:11.435Z,2.73
2023-12-10T09:44:37.762Z,2.39
2023-12-10T09:47:04.092Z,2.33
2023-12-10T09:49:30.477Z,2.31
2023-12-10T09:51:56.872Z,2.34
2023-12-10T09:54:23.209Z,1.87
2023-12-10T09:56:49.559Z,1.98
2023-12-10T09:59:15.977Z,2.03
2023-12-10T10:01:42.348Z,2.00
2023-12-10T10:04:08.836Z,2.38
2023-12-10T10:06:35.863Z,3.28
2023-12-10T10:09:02.921Z,3.32
2023-12-10T10:11:29.245Z,2.93
2023-12-10T10:13:55.569Z,2.46
2023-12-10T10:16:22.038Z,2.26
2023-12-10T10:18:48.494Z,2.21
2023-12-10T10:21:14.882Z,2.16
2023-12-10T10:23:41.252Z,2.08
2023-12-10T10:26:07.586Z,2.14
2023-12-10T10:28:34.290Z,2.10
2023-12-10T10:31:00.618Z,2.19
2023-12-10T10:33:27.087Z,2.28
2023-12-10T10:35:53.556Z,2.12
2023-12-10T10:38:19.913Z,2.06
2023-12-10T10:40:46.466Z,2.24
2023-12-10T10:43:12.840Z,2.02
2023-12-10T10:45:39.652Z,2.08
2023-12-10T10:48:06.123Z,2.33
2023-12-10T10:50:32.516Z,2.49
2023-12-10T10:52:58.894Z,2.26
2023-12-10T10:55:25.206Z,2.24
2023-12-10T10:57:51.604Z,2.44
2023-12-10T11:00:18.103Z,2.18
2023-12-10T11:02:44.564Z,2.12
2023-12-10T11:05:10.925Z,2.29
2023-12-10T11:07:37.321Z,2.35
2023-12-10T11:10:03.724Z,2.34
2023-12-10T11:12:30.071Z,2.54
2023-12-10T11:14:56.401Z,2.21
2023-12-10T11:17:22.726Z,2.25
2023-12-10T11:19:49.226Z,2.15
2023-12-10T11:22:15.573Z,1.89
2023-12-10T11:24:41.913Z,2.10
2023-12-10T11:27:08.376Z,2.07
2023-12-10T11:29:34.703Z,2.08
2023-12-10T11:32:01.049Z,2.02
2023-12-10T11:34:27.448Z,2.04
2023-12-10T11:36:53.980Z,2.17
2023-12-10T11:39:20.352Z,2.12
2023-12-10T11:41:56.246Z,2.26
2023-12-10T11:44:29.361Z,1.89
2023-12-10T11:46:58.121Z,2.04
2023-12-10T11:49:25.010Z,2.23
2023-12-10T11:51:51.475Z,2.07
2023-12-10T11:54:17.888Z,2.09
2023-12-10T11:56:44.247Z,2.15
2023-12-10T11:59:12.629Z,1.98
2023-12-10T12:01:39.571Z,1.87
2023-12-10T12:04:06.052Z,2.07
2023-12-10T12:06:32.592Z,2.03
2023-12-10T12:08:58.935Z,2.12
2023-12-10T12:11:25.258Z,2.09
2023-12-10T12:13:51.592Z,2.15
2023-12-10T12:16:18.188Z,1.96
2023-12-10T12:18:44.720Z,2.02
2023-12-10T12:21:11.086Z,2.03
2023-12-10T12:23:37.395Z,2.15
2023-12-10T12:26:03.715Z,2.14
2023-12-10T12:28:30.014Z,1.86
2023-12-10T12:30:56.369Z,1.98
2023-12-10T12:33:22.844Z,1.93
2023-12-10T12:35:49.311Z,1.89
2023-12-10T12:38:15.627Z,1.79
2023-12-10T12:40:41.949Z,1.99
2023-12-10T12:43:08.364Z,2.05
2023-12-10T12:45:34.776Z,2.07
2023-12-10T12:48:01.338Z,2.16
2023-12-10T12:50:27.694Z,1.92
2023-12-10T12:52:54.371Z,1.81
2023-12-10T12:55:20.795Z,1.92
2023-12-10T12:57:47.153Z,2.06
2023-12-10T13:00:13.601Z,2.09
2023-12-10T13:02:39.924Z,1.95
2023-12-10T13:05:06.320Z,2.00
2023-12-10T13:07:32.805Z,1.81
2023-12-10T13:10:01.846Z,1.85
2023-12-10T13:12:29.750Z,1.89
2023-12-10T13:14:56.086Z,1.83
2023-12-10T13:17:22.436Z,2.16
2023-12-10T13:19:48.805Z,1.96
2023-12-10T13:22:15.218Z,2.06
2023-12-10T13:24:41.590Z,1.83
2023-12-10T13:27:07.936Z,1.96
2023-12-10T13:29:34.414Z,1.91
2023-12-10T13:32:00.732Z,1.91
2023-12-10T13:34:27.123Z,1.97
2023-12-10T13:36:53.515Z,1.96
2023-12-10T13:39:19.985Z,1.98
2023-12-10T13:41:46.532Z,1.87
2023-12-10T13:44:13.756Z,1.95
2023-12-10T13:46:41.424Z,1.97
2023-12-10T13:49:07.766Z,1.95
2023-12-10T13:51:34.196Z,1.95
2023-12-10T13:54:00.646Z,1.98
2023-12-10T13:56:26.956Z,1.92
2023-12-10T13:58:53.272Z,1.81
2023-12-10T14:01:19.699Z,2.21
2023-12-10T14:03:46.172Z,2.11
2023-12-10T14:06:12.866Z,2.14
2023-12-10T14:08:39.207Z,1.94
2023-12-10T14:11:05.518Z,1.74
2023-12-10T14:13:31.856Z,1.77
2023-12-10T14:15:58.176Z,1.79
2023-12-10T14:18:24.613Z,1.81
2023-12-10T14:20:51.080Z,2.13
2023-12-10T14:23:17.566Z,2.16
2023-12-10T14:25:45.020Z,2.03
2023-12-10T14:28:11.779Z,2.10
2023-12-10T14:30:38.179Z,1.91
2023-12-10T14:33:04.644Z,2.19
2023-12-10T14:35:31.185Z,2.08
2023-12-10T14:37:57.523Z,1.88
2023-12-10T14:40:23.846Z,2.07
2023-12-10T14:42:50.228Z,1.98
2023-12-10T14:45:16.775Z,1.97
2023-12-10T14:47:43.444Z,2.02
2023-12-10T14:50:09.865Z,2.03
2023-12-10T14:52:36.202Z,1.98
2023-12-10T14:55:02.563Z,1.94
2023-12-10T14:57:29.143Z,2.06
2023-12-10T14:59:55.692Z,1.96
2023-12-10T15:02:22.094Z,2.22
2023-12-10T15:04:48.427Z,2.31
2023-12-10T15:07:14.841Z,2.25
2023-12-10T15:09:41.216Z,2.81
2023-12-10T15:12:07.564Z,2.57
2023-12-10T15:14:33.869Z,2.95
2023-12-10T15:17:00.227Z,2.81
2023-12-10T15:19:26.608Z,2.60
2023-12-10T15:21:52.995Z,2.13
2023-12-10T15:24:19.413Z,2.11
2023-12-10T15:26:45.752Z,2.04
2023-12-10T15:29:12.071Z,2.03
2023-12-10T15:31:38.390Z,2.06
2023-12-10T15:34:04.826Z,1.95
2023-12-10T15:36:31.290Z,2.03
2023-12-10T15:38:57.632Z,2.11
2023-12-10T15:41:24.036Z,2.04
2023-12-10T15:43:50.361Z,2.13
2023-12-10T15:46:16.692Z,1.99
2023-12-10T15:48:43.258Z,2.12
2023-12-10T15:51:09.707Z,2.11
2023-12-10T15:53:36.185Z,2.04
2023-12-10T15:56:02.523Z,2.08
2023-12-10T15:58:28.863Z,2.05
2023-12-10T16:00:55.385Z,2.22
2023-12-10T16:03:21.845Z,2.04
2023-12-10T16:05:48.368Z,1.97
2023-12-10T16:08:14.766Z,2.25
2023-12-10T16:10:41.106Z,2.22
2023-12-10T16:13:07.472Z,2.36
2023-12-10T16:15:34.050Z,2.38
2023-12-10T16:18:00.493Z,2.62
2023-12-10T16:20:26.868Z,2.52
2023-12-10T16:22:53.219Z,2.93
2023-12-10T16:25:19.905Z,2.97
2023-12-10T16:27:46.383Z,2.48
2023-12-10T16:30:12.856Z,2.65
2023-12-10T16:32:39.228Z,2.71
2023-12-10T16:35:05.664Z,2.76
2023-12-10T16:37:32.168Z,3.05
2023-12-10T16:39:58.606Z,3.17
2023-12-10T16:42:24.957Z,3.73
2023-12-10T16:44:51.300Z,5.62
2023-12-10T16:47:17.771Z,4.64
2023-12-10T16:49:45.634Z,3.13
2023-12-10T16:52:13.148Z,2.96
2023-12-10T16:54:39.569Z,2.93
2023-12-10T16:57:05.930Z,2.75
2023-12-10T16:59:32.304Z,2.47
2023-12-10T17:01:58.621Z,2.63
2023-12-10T17:04:25.116Z,2.61
2023-12-10T17:06:51.515Z,2.55
2023-12-10T17:09:17.854Z,2.78
2023-12-10T17:11:44.209Z,2.78
2023-12-10T17:14:10.544Z,3.42
2023-12-10T17:16:36.856Z,4.04
2023-12-10T17:19:03.407Z,4.14
2023-12-10T17:21:29.913Z,3.52
2023-12-10T17:23:56.244Z,3.69
2023-12-10T17:26:22.562Z,3.47
2023-12-10T17:28:48.918Z,2.78
2023-12-10T17:31:15.258Z,3.20
2023-12-10T17:33:41.742Z,3.38
2023-12-10T17:36:08.112Z,3.02
2023-12-10T17:38:34.427Z,2.99
2023-12-10T17:41:00.913Z,2.98
2023-12-10T17:43:27.254Z,2.74
2023-12-10T17:45:53.605Z,3.21
2023-12-10T17:48:20.004Z,3.40
2023-12-10T17:50:46.423Z,3.39
2023-12-10T17:53:12.863Z,2.76
2023-12-10T17:55:39.199Z,2.46
2023-12-10T17:58:05.553Z,2.98
2023-12-10T18:00:31.940Z,2.79
2023-12-10T18:02:58.285Z,2.53
2023-12-10T18:05:24.775Z,2.81
2023-12-10T18:07:51.116Z,3.49
2023-12-10T18:10:17.466Z,3.12
2023-12-10T18:12:43.810Z,2.96
2023-12-10T18:15:10.161Z,2.91
2023-12-10T18:17:36.742Z,3.13
2023-12-10T18:20:03.269Z,3.62
2023-12-10T18:22:29.657Z,6.56
2023-12-10T18:24:56.044Z,6.61
2023-12-10T18:27:22.427Z,6.37
2023-12-10T18:29:48.786Z,6.53
2023-12-10T18:32:15.109Z,5.34
2023-12-10T18:34:41.454Z,7.40
2023-12-10T18:37:07.860Z,7.43
2023-12-10T18:39:34.249Z,4.80
2023-12-10T18:42:00.594Z,4.46
2023-12-10T18:44:26.920Z,5.95
2023-12-10T18:46:53.271Z,5.78
2023-12-10T18:49:19.681Z,4.23
2023-12-10T18:51:46.104Z,4.15
2023-12-10T18:54:12.437Z,5.07
2023-12-10T18:56:38.749Z,5.10
2023-12-10T18:59:05.147Z,3.78
2023-12-10T19:01:31.561Z,4.09
2023-12-10T19:03:57.949Z,3.47
2023-12-10T19:06:24.317Z,3.93
2023-12-10T19:08:50.657Z,4.06
2023-12-10T19:11:17.131Z,4.50
2023-12-10T19:13:43.475Z,3.39
2023-12-10T19:16:09.864Z,2.95
2023-12-10T19:18:36.331Z,2.76
2023-12-10T19:21:02.741Z,2.60
2023-12-10T19:23:29.209Z,2.51
2023-12-10T19:25:55.518Z,2.70
2023-12-10T19:28:21.894Z,3.15
2023-12-10T19:30:48.360Z,4.85
2023-12-10T19:33:14.734Z,4.10
2023-12-10T19:35:41.137Z,3.87
2023-12-10T19:38:07.455Z,4.27
2023-12-10T19:40:33.769Z,4.08
2023-12-10T19:43:00.093Z,3.81
2023-12-10T19:45:26.494Z,4.14
2023-12-10T19:47:52.976Z,4.51
2023-12-10T19:50:19.357Z,4.29
2023-12-10T19:52:45.690Z,3.43
2023-12-10T19:55:12.008Z,3.33
2023-12-10T19:57:38.348Z,3.01
2023-12-10T20:00:04.713Z,3.29
2023-12-10T20:02:31.228Z,2.80
2023-12-10T20:04:57.710Z,3.11
2023-12-10T20:07:24.136Z,3.03
2023-12-10T20:09:50.488Z,5.57
2023-12-10T20:12:16.819Z,3.89
2023-12-10T20:14:43.144Z,3.01
2023-12-10T20:17:09.465Z,3.16
2023-12-10T20:19:35.967Z,2.92
2023-12-10T20:22:02.406Z,2.86
2023-12-10T20:24:34.776Z,3.10
2023-12-10T20:27:03.166Z,3.34
2023-12-10T20:29:29.571Z,2.92
2023-12-10T20:31:55.936Z,2.56
2023-12-10T20:34:29.776Z,2.51
2023-12-10T20:36:59.485Z,2.64
2023-12-10T20:39:25.895Z,2.54
2023-12-10T20:41:52.244Z,2.30
2023-12-10T20:44:18.625Z,2.20
2023-12-10T20:46:45.014Z,2.40
2023-12-10T20:49:11.452Z,2.21
2023-12-10T20:51:37.834Z,2.54
2023-12-10T20:54:04.169Z,2.62
2023-12-10T20:56:30.497Z,2.30
2023-12-10T20:58:56.842Z,2.11
2023-12-10T21:01:23.313Z,2.07
2023-12-10T21:03:49.742Z,1.86
2023-12-10T21:06:16.184Z,1.93
2023-12-10T21:08:42.564Z,1.83
2023-12-10T21:11:08.914Z,1.67
2023-12-10T21:13:35.242Z,1.32
2023-12-10T21:16:01.564Z,1.24
2023-12-10T21:18:28.106Z,1.13
2023-12-10T21:20:54.507Z,1.13
2023-12-10T21:23:20.867Z,1.12
2023-12-10T21:25:47.167Z,1.04
2023-12-10T21:28:13.527Z,1.10
2023-12-10T21:30:39.891Z,1.11
2023-12-10T21:33:06.290Z,1.02
2023-12-10T21:35:32.640Z,0.88
2023-12-10T21:37:58.951Z,0.90
2023-12-10T21:40:25.280Z,1.05
2023-12-10T21:42:51.609Z,1.06
2023-12-10T21:45:17.922Z,1.00
2023-12-10T21:47:44.310Z,1.17
2023-12-10T21:50:10.683Z,1.05
2023-12-10T21:52:37.095Z,1.12
2023-12-10T21:55:03.515Z,0.96
2023-12-10T21:57:30.097Z,1.00
2023-12-10T21:59:56.641Z,1.06
2023-12-10T22:02:22.935Z,1.13
2023-12-10T22:04:49.403Z,1.33
2023-12-10T22:07:16.115Z,0.95
2023-12-10T22:09:42.677Z,1.08
2023-12-10T22:12:09.222Z,0.97
2023-12-10T22:14:35.569Z,1.17
2023-12-10T22:17:01.992Z,1.17
2023-12-10T22:19:28.563Z,1.15
2023-12-10T22:21:55.311Z,1.23
2023-12-10T22:24:21.920Z,1.19
2023-12-10T22:26:48.504Z,1.20
2023-12-10T22:29:15.238Z,1.28
2023-12-10T22:31:41.839Z,1.22
2023-12-10T22:34:08.561Z,1.19
2023-12-10T22:36:35.469Z,1.28
2023-12-10T22:39:01.999Z,1.37
2023-12-10T22:41:28.650Z,1.33
2023-12-10T22:43:55.216Z,1.54
2023-12-10T22:46:21.610Z,1.32
2023-12-10T22:48:48.144Z,1.31
2023-12-10T22:51:14.598Z,1.44
2023-12-10T22:53:41.004Z,1.34
2023-12-10T22:56:07.362Z,1.35
2023-12-10T22:58:33.804Z,1.50
2023-12-10T23:01:00.268Z,1.52
2023-12-10T23:03:26.723Z,1.53
2023-12-10T23:05:53.182Z,1.50
2023-12-10T23:08:19.553Z,1.34
2023-12-10T23:10:45.892Z,1.46
2023-12-10T23:13:12.334Z,1.50
2023-12-10T23:15:38.686Z,1.53
2023-12-10T23:18:05.289Z,1.40
2023-12-10T23:20:31.804Z,1.52
2023-12-10T23:22:58.149Z,1.77
2023-12-10T23:25:24.536Z,1.79
2023-12-10T23:27:50.970Z,1.66
2023-12-10T23:30:20.406Z,1.64
2023-12-10T23:32:51.204Z,1.70
2023-12-10T23:35:17.709Z,1.53
2023-12-10T23:37:44.032Z,1.51
2023-12-10T23:40:10.398Z,1.49
2023-12-10T23:42:36.875Z,1.59
2023-12-10T23:45:03.192Z,1.55
2023-12-10T23:47:29.747Z,1.80
2023-12-10T23:49:56.394Z,1.50
2023-12-10T23:52:22.729Z,1.69
2023-12-10T23:54:49.073Z,1.46
2023-12-10T23:57:15.404Z,1.50
2023-12-10T23:59:41.816Z,1.71
